Terminal Aerodrome Forecast
Issued by NWS Sioux Falls, SD

Home | Current Version | Previous Version | Text Only | Print | Product List | Glossary On
Versions: 1 2 3 4 5 6 7 8 9 10 11 12 13 14 15 16 17 18
000
FTUS43 KFSD 171733
TAFFSD
TAF
KFSD 171733Z 1718/1818 30011KT 5SM BR VCSH SCT010 BKN030
     FM171900 30012G20KT P6SM SCT030
     FM172300 30006KT P6SM SKC
     FM180700 14012G20KT P6SM BKN120 WS020/18045KT
     FM181000 15015G22KT P6SM BKN120 WS020/19055KT
     FM181500 18010G18KT P6SM BKN150 WS007/22020KT=

USA.gov is the U.S. government's official web portal to all federal, state and local government web resources and services.